sensor_id;sensor_type;location;lat;lon;timestamp;P1;durP1;ratioP1;P2;durP2;ratioP2
2772;SDS011;1394;47.044;15.744;2023-09-07T00:00:18;25.23;;;2.33;;
2772;SDS011;1394;47.044;15.744;2023-09-07T00:02:55;24.70;;;2.20;;
2772;SDS011;1394;47.044;15.744;2023-09-07T00:05:22;24.90;;;2.50;;
2772;SDS011;1394;47.044;15.744;2023-09-07T00:07:51;24.63;;;2.00;;
2772;SDS011;1394;47.044;15.744;2023-09-07T00:10:18;24.53;;;1.90;;
2772;SDS011;1394;47.044;15.744;2023-09-07T00:12:45;24.67;;;1.90;;
2772;SDS011;1394;47.044;15.744;2023-09-07T00:15:12;25.30;;;2.43;;
2772;SDS011;1394;47.044;15.744;2023-09-07T00:17:40;24.87;;;2.20;;
2772;SDS011;1394;47.044;15.744;2023-09-07T00:20:07;25.17;;;1.90;;
2772;SDS011;1394;47.044;15.744;2023-09-07T00:22:40;24.63;;;2.10;;
2772;SDS011;1394;47.044;15.744;2023-09-07T00:25:09;24.60;;;2.00;;
2772;SDS011;1394;47.044;15.744;2023-09-07T00:27:36;25.10;;;1.83;;
2772;SDS011;1394;47.044;15.744;2023-09-07T00:30:05;25.47;;;2.20;;
2772;SDS011;1394;47.044;15.744;2023-09-07T00:32:35;25.17;;;1.87;;
2772;SDS011;1394;47.044;15.744;2023-09-07T00:35:02;25.20;;;2.17;;
2772;SDS011;1394;47.044;15.744;2023-09-07T00:37:29;24.40;;;1.80;;
2772;SDS011;1394;47.044;15.744;2023-09-07T00:39:56;24.23;;;1.67;;
2772;SDS011;1394;47.044;15.744;2023-09-07T00:42:25;24.50;;;1.83;;
2772;SDS011;1394;47.044;15.744;2023-09-07T00:45:07;24.37;;;1.70;;
2772;SDS011;1394;47.044;15.744;2023-09-07T00:47:34;24.30;;;1.73;;
2772;SDS011;1394;47.044;15.744;2023-09-07T00:50:07;24.40;;;1.80;;
2772;SDS011;1394;47.044;15.744;2023-09-07T00:52:35;24.30;;;1.87;;
2772;SDS011;1394;47.044;15.744;2023-09-07T00:55:05;24.70;;;2.20;;
2772;SDS011;1394;47.044;15.744;2023-09-07T00:57:34;25.63;;;2.13;;
2772;SDS011;1394;47.044;15.744;2023-09-07T01:00:01;24.53;;;1.90;;
2772;SDS011;1394;47.044;15.744;2023-09-07T01:02:31;24.60;;;2.30;;
2772;SDS011;1394;47.044;15.744;2023-09-07T01:04:58;24.50;;;2.10;;
2772;SDS011;1394;47.044;15.744;2023-09-07T01:07:26;24.57;;;1.90;;
2772;SDS011;1394;47.044;15.744;2023-09-07T01:09:56;25.03;;;2.10;;
2772;SDS011;1394;47.044;15.744;2023-09-07T01:12:23;24.50;;;2.00;;
2772;SDS011;1394;47.044;15.744;2023-09-07T01:14:52;25.17;;;1.80;;
2772;SDS011;1394;47.044;15.744;2023-09-07T01:17:20;25.33;;;2.50;;
2772;SDS011;1394;47.044;15.744;2023-09-07T01:19:48;25.10;;;2.40;;
2772;SDS011;1394;47.044;15.744;2023-09-07T01:22:29;24.60;;;2.20;;
2772;SDS011;1394;47.044;15.744;2023-09-07T01:25:00;24.30;;;2.03;;
2772;SDS011;1394;47.044;15.744;2023-09-07T01:27:30;25.20;;;2.03;;
2772;SDS011;1394;47.044;15.744;2023-09-07T01:29:58;24.40;;;2.20;;
2772;SDS011;1394;47.044;15.744;2023-09-07T01:32:25;24.80;;;2.40;;
2772;SDS011;1394;47.044;15.744;2023-09-07T01:34:53;25.20;;;2.27;;
2772;SDS011;1394;47.044;15.744;2023-09-07T01:37:23;24.30;;;1.70;;
2772;SDS011;1394;47.044;15.744;2023-09-07T01:39:51;24.47;;;1.90;;
2772;SDS011;1394;47.044;15.744;2023-09-07T01:42:18;24.27;;;2.10;;
2772;SDS011;1394;47.044;15.744;2023-09-07T01:44:46;24.20;;;1.83;;
2772;SDS011;1394;47.044;15.744;2023-09-07T01:47:14;24.47;;;2.00;;
2772;SDS011;1394;47.044;15.744;2023-09-07T01:49:41;24.40;;;2.00;;
2772;SDS011;1394;47.044;15.744;2023-09-07T01:52:08;24.40;;;1.97;;
2772;SDS011;1394;47.044;15.744;2023-09-07T01:54:37;24.20;;;1.80;;
2772;SDS011;1394;47.044;15.744;2023-09-07T01:57:04;24.93;;;1.90;;
2772;SDS011;1394;47.044;15.744;2023-09-07T01:59:31;24.70;;;1.80;;
2772;SDS011;1394;47.044;15.744;2023-09-07T02:01:58;24.57;;;2.23;;
2772;SDS011;1394;47.044;15.744;2023-09-07T02:04:27;25.33;;;2.10;;
2772;SDS011;1394;47.044;15.744;2023-09-07T02:06:54;24.80;;;2.20;;
2772;SDS011;1394;47.044;15.744;2023-09-07T02:09:21;24.50;;;2.00;;
2772;SDS011;1394;47.044;15.744;2023-09-07T02:11:50;24.77;;;2.13;;
2772;SDS011;1394;47.044;15.744;2023-09-07T02:14:17;24.73;;;2.00;;
2772;SDS011;1394;47.044;15.744;2023-09-07T02:16:44;24.70;;;2.10;;
2772;SDS011;1394;47.044;15.744;2023-09-07T02:19:11;24.00;;;1.87;;
2772;SDS011;1394;47.044;15.744;2023-09-07T02:21:39;24.83;;;2.23;;
2772;SDS011;1394;47.044;15.744;2023-09-07T02:24:06;24.10;;;1.90;;
2772;SDS011;1394;47.044;15.744;2023-09-07T02:26:34;24.40;;;2.07;;
2772;SDS011;1394;47.044;15.744;2023-09-07T02:29:08;24.20;;;1.80;;
2772;SDS011;1394;47.044;15.744;2023-09-07T02:31:37;24.33;;;2.17;;
2772;SDS011;1394;47.044;15.744;2023-09-07T02:34:07;24.10;;;1.60;;
2772;SDS011;1394;47.044;15.744;2023-09-07T02:36:35;24.07;;;2.00;;
2772;SDS011;1394;47.044;15.744;2023-09-07T02:39:02;24.27;;;1.83;;
2772;SDS011;1394;47.044;15.744;2023-09-07T02:41:30;24.23;;;1.90;;
2772;SDS011;1394;47.044;15.744;2023-09-07T02:43:57;24.43;;;2.00;;
2772;SDS011;1394;47.044;15.744;2023-09-07T02:46:29;24.73;;;2.07;;
2772;SDS011;1394;47.044;15.744;2023-09-07T02:48:57;24.30;;;2.00;;
2772;SDS011;1394;47.044;15.744;2023-09-07T02:51:24;24.70;;;2.30;;
2772;SDS011;1394;47.044;15.744;2023-09-07T02:53:51;24.30;;;2.00;;
2772;SDS011;1394;47.044;15.744;2023-09-07T02:56:18;24.77;;;2.03;;
2772;SDS011;1394;47.044;15.744;2023-09-07T02:58:46;24.13;;;1.77;;
2772;SDS011;1394;47.044;15.744;2023-09-07T03:01:13;24.97;;;2.10;;
2772;SDS011;1394;47.044;15.744;2023-09-07T03:03:46;24.63;;;1.90;;
2772;SDS011;1394;47.044;15.744;2023-09-07T03:06:14;24.20;;;2.20;;
2772;SDS011;1394;47.044;15.744;2023-09-07T03:08:42;24.50;;;2.00;;
2772;SDS011;1394;47.044;15.744;2023-09-07T03:11:09;24.40;;;2.07;;
2772;SDS011;1394;47.044;15.744;2023-09-07T03:13:36;24.63;;;2.30;;
2772;SDS011;1394;47.044;15.744;2023-09-07T03:16:04;24.90;;;2.30;;
2772;SDS011;1394;47.044;15.744;2023-09-07T03:18:31;24.47;;;2.10;;
2772;SDS011;1394;47.044;15.744;2023-09-07T03:21:02;25.80;;;2.77;;
2772;SDS011;1394;47.044;15.744;2023-09-07T03:23:47;24.37;;;2.30;;
2772;SDS011;1394;47.044;15.744;2023-09-07T03:26:15;25.13;;;2.20;;
2772;SDS011;1394;47.044;15.744;2023-09-07T03:28:51;24.23;;;2.10;;
2772;SDS011;1394;47.044;15.744;2023-09-07T03:31:18;24.20;;;2.27;;
2772;SDS011;1394;47.044;15.744;2023-09-07T03:33:45;24.00;;;2.07;;
2772;SDS011;1394;47.044;15.744;2023-09-07T03:36:14;24.57;;;2.07;;
2772;SDS011;1394;47.044;15.744;2023-09-07T03:38:41;24.30;;;2.00;;
2772;SDS011;1394;47.044;15.744;2023-09-07T03:41:08;24.73;;;2.20;;
2772;SDS011;1394;47.044;15.744;2023-09-07T03:43:38;24.50;;;2.00;;
2772;SDS011;1394;47.044;15.744;2023-09-07T03:46:13;24.97;;;1.80;;
2772;SDS011;1394;47.044;15.744;2023-09-07T03:48:40;24.50;;;2.00;;
2772;SDS011;1394;47.044;15.744;2023-09-07T03:51:08;24.30;;;1.70;;
2772;SDS011;1394;47.044;15.744;2023-09-07T03:53:36;25.40;;;2.10;;
2772;SDS011;1394;47.044;15.744;2023-09-07T03:56:03;24.33;;;1.93;;
2772;SDS011;1394;47.044;15.744;2023-09-07T03:58:31;24.30;;;2.20;;
2772;SDS011;1394;47.044;15.744;2023-09-07T04:00:58;24.30;;;2.20;;
2772;SDS011;1394;47.044;15.744;2023-09-07T04:03:28;24.70;;;2.40;;
2772;SDS011;1394;47.044;15.744;2023-09-07T04:05:55;24.63;;;2.20;;
2772;SDS011;1394;47.044;15.744;2023-09-07T04:08:22;25.07;;;2.60;;
2772;SDS011;1394;47.044;15.744;2023-09-07T04:10:51;25.10;;;2.90;;
2772;SDS011;1394;47.044;15.744;2023-09-07T04:13:19;25.80;;;2.80;;
2772;SDS011;1394;47.044;15.744;2023-09-07T04:15:53;25.03;;;2.50;;
2772;SDS011;1394;47.044;15.744;2023-09-07T04:18:21;26.57;;;2.20;;
2772;SDS011;1394;47.044;15.744;2023-09-07T04:20:49;25.23;;;2.70;;
2772;SDS011;1394;47.044;15.744;2023-09-07T04:23:18;25.07;;;3.10;;
2772;SDS011;1394;47.044;15.744;2023-09-07T04:25:48;25.53;;;3.20;;
2772;SDS011;1394;47.044;15.744;2023-09-07T04:28:17;25.07;;;2.33;;
2772;SDS011;1394;47.044;15.744;2023-09-07T04:30:44;24.87;;;2.70;;
2772;SDS011;1394;47.044;15.744;2023-09-07T04:33:12;24.63;;;2.60;;
2772;SDS011;1394;47.044;15.744;2023-09-07T04:35:39;25.37;;;2.63;;
2772;SDS011;1394;47.044;15.744;2023-09-07T04:38:09;24.63;;;2.37;;
2772;SDS011;1394;47.044;15.744;2023-09-07T04:40:38;24.50;;;2.63;;
2772;SDS011;1394;47.044;15.744;2023-09-07T04:43:05;25.20;;;2.40;;
2772;SDS011;1394;47.044;15.744;2023-09-07T04:45:36;24.77;;;2.60;;
2772;SDS011;1394;47.044;15.744;2023-09-07T04:48:06;26.37;;;2.23;;
2772;SDS011;1394;47.044;15.744;2023-09-07T04:50:33;24.67;;;2.10;;
2772;SDS011;1394;47.044;15.744;2023-09-07T04:53:00;24.70;;;2.20;;
2772;SDS011;1394;47.044;15.744;2023-09-07T04:55:27;24.63;;;1.90;;
2772;SDS011;1394;47.044;15.744;2023-09-07T04:57:55;24.30;;;2.00;;
2772;SDS011;1394;47.044;15.744;2023-09-07T05:00:23;24.07;;;1.90;;
2772;SDS011;1394;47.044;15.744;2023-09-07T05:02:53;24.37;;;2.13;;
2772;SDS011;1394;47.044;15.744;2023-09-07T05:05:21;24.83;;;2.00;;
2772;SDS011;1394;47.044;15.744;2023-09-07T05:07:48;24.90;;;2.20;;
2772;SDS011;1394;47.044;15.744;2023-09-07T05:10:15;24.60;;;2.10;;
2772;SDS011;1394;47.044;15.744;2023-09-07T05:12:42;25.40;;;2.10;;
2772;SDS011;1394;47.044;15.744;2023-09-07T05:15:10;24.30;;;2.10;;
2772;SDS011;1394;47.044;15.744;2023-09-07T05:17:39;24.77;;;2.43;;
2772;SDS011;1394;47.044;15.744;2023-09-07T05:20:10;24.70;;;2.37;;
2772;SDS011;1394;47.044;15.744;2023-09-07T05:22:38;24.60;;;2.10;;
2772;SDS011;1394;47.044;15.744;2023-09-07T05:25:06;24.87;;;2.30;;
2772;SDS011;1394;47.044;15.744;2023-09-07T05:27:33;24.30;;;2.00;;
2772;SDS011;1394;47.044;15.744;2023-09-07T05:30:01;24.50;;;2.20;;
2772;SDS011;1394;47.044;15.744;2023-09-07T05:32:28;25.40;;;2.30;;
2772;SDS011;1394;47.044;15.744;2023-09-07T05:34:55;24.30;;;2.13;;
2772;SDS011;1394;47.044;15.744;2023-09-07T05:37:24;24.70;;;2.20;;
2772;SDS011;1394;47.044;15.744;2023-09-07T05:39:51;25.07;;;2.47;;
2772;SDS011;1394;47.044;15.744;2023-09-07T05:42:18;25.13;;;2.20;;
2772;SDS011;1394;47.044;15.744;2023-09-07T05:44:45;25.07;;;2.30;;
2772;SDS011;1394;47.044;15.744;2023-09-07T05:47:12;24.87;;;2.00;;
2772;SDS011;1394;47.044;15.744;2023-09-07T05:49:40;24.70;;;2.40;;
2772;SDS011;1394;47.044;15.744;2023-09-07T05:52:09;25.07;;;2.20;;
2772;SDS011;1394;47.044;15.744;2023-09-07T05:54:40;24.97;;;2.30;;
2772;SDS011;1394;47.044;15.744;2023-09-07T05:57:10;25.27;;;2.30;;
2772;SDS011;1394;47.044;15.744;2023-09-07T05:59:39;24.80;;;2.13;;
2772;SDS011;1394;47.044;15.744;2023-09-07T06:02:06;25.17;;;2.70;;
2772;SDS011;1394;47.044;15.744;2023-09-07T06:04:34;25.53;;;2.40;;
2772;SDS011;1394;47.044;15.744;2023-09-07T06:07:01;24.70;;;2.23;;
2772;SDS011;1394;47.044;15.744;2023-09-07T06:09:29;25.07;;;2.00;;
2772;SDS011;1394;47.044;15.744;2023-09-07T06:11:57;24.60;;;2.30;;
2772;SDS011;1394;47.044;15.744;2023-09-07T06:14:25;25.20;;;2.10;;
2772;SDS011;1394;47.044;15.744;2023-09-07T06:16:53;25.70;;;2.20;;
2772;SDS011;1394;47.044;15.744;2023-09-07T06:19:20;25.07;;;2.10;;
2772;SDS011;1394;47.044;15.744;2023-09-07T06:21:49;25.00;;;2.40;;
2772;SDS011;1394;47.044;15.744;2023-09-07T06:24:17;25.23;;;2.20;;
2772;SDS011;1394;47.044;15.744;2023-09-07T06:26:44;24.67;;;2.33;;
2772;SDS011;1394;47.044;15.744;2023-09-07T06:29:13;25.00;;;2.23;;
2772;SDS011;1394;47.044;15.744;2023-09-07T06:31:44;25.87;;;2.10;;
2772;SDS011;1394;47.044;15.744;2023-09-07T06:34:14;25.07;;;2.10;;
2772;SDS011;1394;47.044;15.744;2023-09-07T06:36:41;25.40;;;2.57;;
2772;SDS011;1394;47.044;15.744;2023-09-07T06:39:10;25.00;;;2.30;;
2772;SDS011;1394;47.044;15.744;2023-09-07T06:41:40;25.13;;;2.43;;
2772;SDS011;1394;47.044;15.744;2023-09-07T06:44:07;26.20;;;2.17;;
2772;SDS011;1394;47.044;15.744;2023-09-07T06:46:36;24.83;;;2.10;;
2772;SDS011;1394;47.044;15.744;2023-09-07T06:49:03;26.93;;;2.10;;
2772;SDS011;1394;47.044;15.744;2023-09-07T06:51:31;24.90;;;2.07;;
2772;SDS011;1394;47.044;15.744;2023-09-07T06:54:00;25.30;;;2.50;;
2772;SDS011;1394;47.044;15.744;2023-09-07T06:56:28;25.23;;;2.30;;
2772;SDS011;1394;47.044;15.744;2023-09-07T06:58:57;25.33;;;2.37;;
2772;SDS011;1394;47.044;15.744;2023-09-07T07:01:24;24.83;;;2.23;;
2772;SDS011;1394;47.044;15.744;2023-09-07T07:03:53;24.83;;;1.97;;
2772;SDS011;1394;47.044;15.744;2023-09-07T07:06:22;25.07;;;2.03;;
2772;SDS011;1394;47.044;15.744;2023-09-07T07:08:53;26.47;;;2.50;;
2772;SDS011;1394;47.044;15.744;2023-09-07T07:11:39;25.23;;;2.13;;
2772;SDS011;1394;47.044;15.744;2023-09-07T07:14:08;25.77;;;2.03;;
2772;SDS011;1394;47.044;15.744;2023-09-07T07:16:36;25.30;;;2.10;;
2772;SDS011;1394;47.044;15.744;2023-09-07T07:19:05;25.03;;;1.80;;
2772;SDS011;1394;47.044;15.744;2023-09-07T07:21:32;27.30;;;2.00;;
2772;SDS011;1394;47.044;15.744;2023-09-07T07:24:01;25.33;;;1.87;;
2772;SDS011;1394;47.044;15.744;2023-09-07T07:26:29;25.70;;;2.00;;
2772;SDS011;1394;47.044;15.744;2023-09-07T07:28:56;25.30;;;1.90;;
2772;SDS011;1394;47.044;15.744;2023-09-07T07:31:24;25.10;;;1.90;;
2772;SDS011;1394;47.044;15.744;2023-09-07T07:33:52;25.00;;;1.90;;
2772;SDS011;1394;47.044;15.744;2023-09-07T07:36:22;26.60;;;1.90;;
2772;SDS011;1394;47.044;15.744;2023-09-07T07:38:49;26.20;;;2.00;;
2772;SDS011;1394;47.044;15.744;2023-09-07T07:41:17;25.87;;;1.90;;
2772;SDS011;1394;47.044;15.744;2023-09-07T07:43:44;25.87;;;2.07;;
2772;SDS011;1394;47.044;15.744;2023-09-07T07:46:11;26.00;;;1.90;;
2772;SDS011;1394;47.044;15.744;2023-09-07T07:48:40;25.40;;;1.67;;
2772;SDS011;1394;47.044;15.744;2023-09-07T07:51:08;25.23;;;1.70;;
2772;SDS011;1394;47.044;15.744;2023-09-07T07:53:36;24.70;;;1.53;;
2772;SDS011;1394;47.044;15.744;2023-09-07T07:56:05;25.33;;;1.73;;
2772;SDS011;1394;47.044;15.744;2023-09-07T07:58:32;24.80;;;1.37;;
2772;SDS011;1394;47.044;15.744;2023-09-07T08:00:59;25.00;;;1.53;;
2772;SDS011;1394;47.044;15.744;2023-09-07T08:03:26;25.17;;;1.60;;
2772;SDS011;1394;47.044;15.744;2023-09-07T08:05:55;25.20;;;1.73;;
2772;SDS011;1394;47.044;15.744;2023-09-07T08:08:22;25.00;;;1.40;;
2772;SDS011;1394;47.044;15.744;2023-09-07T08:10:51;25.00;;;1.70;;
2772;SDS011;1394;47.044;15.744;2023-09-07T08:13:18;25.10;;;1.30;;
2772;SDS011;1394;47.044;15.744;2023-09-07T08:15:46;24.80;;;1.50;;
2772;SDS011;1394;47.044;15.744;2023-09-07T08:18:15;24.73;;;1.37;;
2772;SDS011;1394;47.044;15.744;2023-09-07T08:20:42;24.97;;;1.60;;
2772;SDS011;1394;47.044;15.744;2023-09-07T08:23:10;26.13;;;1.70;;
2772;SDS011;1394;47.044;15.744;2023-09-07T08:25:37;25.20;;;1.60;;
2772;SDS011;1394;47.044;15.744;2023-09-07T08:28:11;24.73;;;1.37;;
2772;SDS011;1394;47.044;15.744;2023-09-07T08:30:43;24.70;;;1.40;;
2772;SDS011;1394;47.044;15.744;2023-09-07T08:33:11;25.33;;;1.47;;
2772;SDS011;1394;47.044;15.744;2023-09-07T08:35:38;24.63;;;1.30;;
2772;SDS011;1394;47.044;15.744;2023-09-07T08:38:10;24.80;;;1.30;;
2772;SDS011;1394;47.044;15.744;2023-09-07T08:40:38;24.90;;;1.30;;
2772;SDS011;1394;47.044;15.744;2023-09-07T08:43:08;25.00;;;1.63;;
2772;SDS011;1394;47.044;15.744;2023-09-07T08:45:40;25.47;;;1.37;;
2772;SDS011;1394;47.044;15.744;2023-09-07T08:48:08;24.60;;;1.30;;
2772;SDS011;1394;47.044;15.744;2023-09-07T08:50:35;24.80;;;1.40;;
2772;SDS011;1394;47.044;15.744;2023-09-07T08:53:03;24.60;;;1.30;;
2772;SDS011;1394;47.044;15.744;2023-09-07T08:55:32;24.80;;;1.53;;
2772;SDS011;1394;47.044;15.744;2023-09-07T08:58:03;24.80;;;1.40;;
2772;SDS011;1394;47.044;15.744;2023-09-07T09:00:32;24.87;;;1.10;;
2772;SDS011;1394;47.044;15.744;2023-09-07T09:03:09;24.60;;;1.30;;
2772;SDS011;1394;47.044;15.744;2023-09-07T09:05:38;24.63;;;1.10;;
2772;SDS011;1394;47.044;15.744;2023-09-07T09:08:06;24.70;;;1.30;;
2772;SDS011;1394;47.044;15.744;2023-09-07T09:10:33;24.93;;;1.53;;
2772;SDS011;1394;47.044;15.744;2023-09-07T09:13:02;24.53;;;1.27;;
2772;SDS011;1394;47.044;15.744;2023-09-07T09:15:29;25.17;;;1.40;;
2772;SDS011;1394;47.044;15.744;2023-09-07T09:17:57;24.80;;;1.40;;
2772;SDS011;1394;47.044;15.744;2023-09-07T09:20:27;24.80;;;1.50;;
2772;SDS011;1394;47.044;15.744;2023-09-07T09:22:55;24.77;;;1.53;;
2772;SDS011;1394;47.044;15.744;2023-09-07T09:25:22;24.80;;;1.50;;
2772;SDS011;1394;47.044;15.744;2023-09-07T09:27:52;26.57;;;1.30;;
2772;SDS011;1394;47.044;15.744;2023-09-07T09:30:19;25.07;;;1.70;;
2772;SDS011;1394;47.044;15.744;2023-09-07T09:32:48;24.83;;;1.40;;
2772;SDS011;1394;47.044;15.744;2023-09-07T09:35:16;25.37;;;1.30;;
2772;SDS011;1394;47.044;15.744;2023-09-07T09:37:48;24.80;;;1.47;;
2772;SDS011;1394;47.044;15.744;2023-09-07T09:40:16;24.87;;;1.40;;
2772;SDS011;1394;47.044;15.744;2023-09-07T09:42:44;25.00;;;1.40;;
2772;SDS011;1394;47.044;15.744;2023-09-07T09:45:11;24.73;;;1.40;;
2772;SDS011;1394;47.044;15.744;2023-09-07T09:47:40;24.70;;;1.33;;
2772;SDS011;1394;47.044;15.744;2023-09-07T09:50:07;25.37;;;1.43;;
2772;SDS011;1394;47.044;15.744;2023-09-07T09:52:35;25.03;;;1.40;;
2772;SDS011;1394;47.044;15.744;2023-09-07T09:55:05;25.80;;;1.47;;
2772;SDS011;1394;47.044;15.744;2023-09-07T09:57:34;24.60;;;1.30;;
2772;SDS011;1394;47.044;15.744;2023-09-07T10:00:03;24.50;;;1.20;;
2772;SDS011;1394;47.044;15.744;2023-09-07T10:02:48;24.60;;;1.30;;
2772;SDS011;1394;47.044;15.744;2023-09-07T10:05:17;25.10;;;1.57;;
2772;SDS011;1394;47.044;15.744;2023-09-07T10:07:48;24.70;;;1.30;;
2772;SDS011;1394;47.044;15.744;2023-09-07T10:10:22;24.90;;;1.50;;
2772;SDS011;1394;47.044;15.744;2023-09-07T10:12:51;24.70;;;1.30;;
2772;SDS011;1394;47.044;15.744;2023-09-07T10:15:20;24.57;;;1.30;;
2772;SDS011;1394;47.044;15.744;2023-09-07T10:17:47;25.10;;;1.40;;
2772;SDS011;1394;47.044;15.744;2023-09-07T10:20:15;24.97;;;1.30;;
2772;SDS011;1394;47.044;15.744;2023-09-07T10:22:43;25.27;;;1.20;;
2772;SDS011;1394;47.044;15.744;2023-09-07T10:25:22;25.17;;;1.40;;
2772;SDS011;1394;47.044;15.744;2023-09-07T10:27:49;24.93;;;1.40;;
2772;SDS011;1394;47.044;15.744;2023-09-07T10:32:49;25.27;;;1.10;;
2772;SDS011;1394;47.044;15.744;2023-09-07T10:35:17;24.47;;;1.23;;
2772;SDS011;1394;47.044;15.744;2023-09-07T10:37:48;25.30;;;1.40;;
2772;SDS011;1394;47.044;15.744;2023-09-07T10:40:19;24.30;;;1.20;;
2772;SDS011;1394;47.044;15.744;2023-09-07T10:42:48;26.37;;;1.27;;
2772;SDS011;1394;47.044;15.744;2023-09-07T10:45:15;24.40;;;1.20;;
2772;SDS011;1394;47.044;15.744;2023-09-07T10:47:43;25.30;;;1.20;;
2772;SDS011;1394;47.044;15.744;2023-09-07T10:50:12;24.60;;;1.30;;
2772;SDS011;1394;47.044;15.744;2023-09-07T10:52:40;25.17;;;1.40;;
2772;SDS011;1394;47.044;15.744;2023-09-07T10:55:12;24.70;;;1.30;;
2772;SDS011;1394;47.044;15.744;2023-09-07T10:57:42;24.67;;;1.13;;
2772;SDS011;1394;47.044;15.744;2023-09-07T11:00:11;26.00;;;1.30;;
2772;SDS011;1394;47.044;15.744;2023-09-07T11:02:39;24.60;;;1.20;;
2772;SDS011;1394;47.044;15.744;2023-09-07T11:05:07;25.17;;;1.20;;
2772;SDS011;1394;47.044;15.744;2023-09-07T11:07:35;25.27;;;1.50;;
2772;SDS011;1394;47.044;15.744;2023-09-07T11:10:07;24.57;;;1.20;;
2772;SDS011;1394;47.044;15.744;2023-09-07T11:12:37;24.70;;;1.20;;
2772;SDS011;1394;47.044;15.744;2023-09-07T11:15:08;24.47;;;1.23;;
2772;SDS011;1394;47.044;15.744;2023-09-07T11:17:38;24.97;;;1.10;;
2772;SDS011;1394;47.044;15.744;2023-09-07T11:20:09;25.13;;;1.13;;
2772;SDS011;1394;47.044;15.744;2023-09-07T11:22:38;24.80;;;1.40;;
2772;SDS011;1394;47.044;15.744;2023-09-07T11:25:06;24.30;;;1.20;;
2772;SDS011;1394;47.044;15.744;2023-09-07T11:27:34;24.67;;;1.30;;
2772;SDS011;1394;47.044;15.744;2023-09-07T11:30:04;25.63;;;1.20;;
2772;SDS011;1394;47.044;15.744;2023-09-07T11:32:33;24.40;;;1.30;;
2772;SDS011;1394;47.044;15.744;2023-09-07T11:35:02;24.77;;;1.30;;
2772;SDS011;1394;47.044;15.744;2023-09-07T11:37:32;24.20;;;1.30;;
2772;SDS011;1394;47.044;15.744;2023-09-07T11:40:00;24.37;;;1.20;;
2772;SDS011;1394;47.044;15.744;2023-09-07T11:42:29;24.10;;;1.00;;
2772;SDS011;1394;47.044;15.744;2023-09-07T11:44:58;24.23;;;1.20;;
2772;SDS011;1394;47.044;15.744;2023-09-07T11:47:25;25.30;;;1.30;;
2772;SDS011;1394;47.044;15.744;2023-09-07T11:49:55;24.70;;;1.03;;
2772;SDS011;1394;47.044;15.744;2023-09-07T11:52:25;24.77;;;1.40;;
2772;SDS011;1394;47.044;15.744;2023-09-07T11:54:53;24.07;;;1.10;;
2772;SDS011;1394;47.044;15.744;2023-09-07T11:57:20;24.13;;;1.30;;
2772;SDS011;1394;47.044;15.744;2023-09-07T11:59:47;24.67;;;1.30;;
2772;SDS011;1394;47.044;15.744;2023-09-07T12:02:14;24.10;;;1.10;;
2772;SDS011;1394;47.044;15.744;2023-09-07T12:04:42;24.50;;;1.50;;
2772;SDS011;1394;47.044;15.744;2023-09-07T12:07:09;24.30;;;1.40;;
2772;SDS011;1394;47.044;15.744;2023-09-07T12:09:38;24.13;;;1.30;;
2772;SDS011;1394;47.044;15.744;2023-09-07T12:12:05;24.53;;;1.20;;
2772;SDS011;1394;47.044;15.744;2023-09-07T12:14:35;24.50;;;1.40;;
2772;SDS011;1394;47.044;15.744;2023-09-07T12:17:04;24.30;;;1.20;;
2772;SDS011;1394;47.044;15.744;2023-09-07T12:19:31;24.43;;;1.10;;
2772;SDS011;1394;47.044;15.744;2023-09-07T12:21:58;24.20;;;1.10;;
2772;SDS011;1394;47.044;15.744;2023-09-07T12:24:26;25.70;;;1.00;;
2772;SDS011;1394;47.044;15.744;2023-09-07T12:26:55;24.00;;;1.20;;
2772;SDS011;1394;47.044;15.744;2023-09-07T12:29:24;23.80;;;1.10;;
2772;SDS011;1394;47.044;15.744;2023-09-07T12:31:54;24.43;;;1.13;;
2772;SDS011;1394;47.044;15.744;2023-09-07T12:34:23;23.90;;;1.07;;
2772;SDS011;1394;47.044;15.744;2023-09-07T12:36:50;24.47;;;1.10;;
2772;SDS011;1394;47.044;15.744;2023-09-07T12:39:19;23.80;;;1.00;;
2772;SDS011;1394;47.044;15.744;2023-09-07T12:41:46;24.00;;;1.17;;
2772;SDS011;1394;47.044;15.744;2023-09-07T12:44:14;24.33;;;1.20;;
2772;SDS011;1394;47.044;15.744;2023-09-07T12:46:46;24.93;;;1.67;;
2772;SDS011;1394;47.044;15.744;2023-09-07T12:49:14;24.10;;;1.10;;
2772;SDS011;1394;47.044;15.744;2023-09-07T12:51:41;24.20;;;1.10;;
2772;SDS011;1394;47.044;15.744;2023-09-07T12:54:08;24.90;;;1.20;;
2772;SDS011;1394;47.044;15.744;2023-09-07T12:56:36;24.40;;;1.30;;
2772;SDS011;1394;47.044;15.744;2023-09-07T12:59:04;23.90;;;0.93;;
2772;SDS011;1394;47.044;15.744;2023-09-07T13:01:35;24.10;;;1.10;;
2772;SDS011;1394;47.044;15.744;2023-09-07T13:04:04;24.00;;;1.00;;
2772;SDS011;1394;47.044;15.744;2023-09-07T13:06:32;24.27;;;1.20;;
2772;SDS011;1394;47.044;15.744;2023-09-07T13:08:59;24.00;;;1.00;;
2772;SDS011;1394;47.044;15.744;2023-09-07T13:11:26;24.60;;;1.30;;
2772;SDS011;1394;47.044;15.744;2023-09-07T13:13:55;23.80;;;1.13;;
2772;SDS011;1394;47.044;15.744;2023-09-07T13:16:22;23.90;;;1.17;;
2772;SDS011;1394;47.044;15.744;2023-09-07T13:18:50;23.80;;;1.00;;
2772;SDS011;1394;47.044;15.744;2023-09-07T13:21:20;24.10;;;1.20;;
2772;SDS011;1394;47.044;15.744;2023-09-07T13:23:49;24.47;;;1.17;;
2772;SDS011;1394;47.044;15.744;2023-09-07T13:26:16;24.20;;;1.17;;
2772;SDS011;1394;47.044;15.744;2023-09-07T13:28:44;24.73;;;1.30;;
2772;SDS011;1394;47.044;15.744;2023-09-07T13:31:11;23.70;;;1.17;;
2772;SDS011;1394;47.044;15.744;2023-09-07T13:33:38;24.03;;;1.07;;
2772;SDS011;1394;47.044;15.744;2023-09-07T13:36:09;23.63;;;0.90;;
2772;SDS011;1394;47.044;15.744;2023-09-07T13:38:36;23.55;;;1.17;;
2772;SDS011;1394;47.044;15.744;2023-09-07T13:41:06;23.50;;;1.13;;
2772;SDS011;1394;47.044;15.744;2023-09-07T13:43:36;23.50;;;0.93;;
2772;SDS011;1394;47.044;15.744;2023-09-07T13:46:10;23.55;;;1.20;;
2772;SDS011;1394;47.044;15.744;2023-09-07T13:48:38;24.48;;;1.13;;
2772;SDS011;1394;47.044;15.744;2023-09-07T13:51:05;23.40;;;1.00;;
2772;SDS011;1394;47.044;15.744;2023-09-07T13:53:36;24.80;;;1.27;;
2772;SDS011;1394;47.044;15.744;2023-09-07T13:56:05;24.07;;;1.00;;
2772;SDS011;1394;47.044;15.744;2023-09-07T13:58:33;23.83;;;1.20;;
2772;SDS011;1394;47.044;15.744;2023-09-07T14:01:00;23.65;;;1.13;;
2772;SDS011;1394;47.044;15.744;2023-09-07T14:03:29;23.33;;;1.20;;
2772;SDS011;1394;47.044;15.744;2023-09-07T14:05:56;23.60;;;1.38;;
2772;SDS011;1394;47.044;15.744;2023-09-07T14:08:25;24.50;;;1.35;;
2772;SDS011;1394;47.044;15.744;2023-09-07T14:10:54;24.00;;;1.30;;
2772;SDS011;1394;47.044;15.744;2023-09-07T14:13:22;23.70;;;1.10;;
2772;SDS011;1394;47.044;15.744;2023-09-07T14:15:49;23.40;;;1.10;;
2772;SDS011;1394;47.044;15.744;2023-09-07T14:18:19;23.63;;;1.10;;
2772;SDS011;1394;47.044;15.744;2023-09-07T14:20:46;23.42;;;1.10;;
2772;SDS011;1394;47.044;15.744;2023-09-07T14:23:13;23.60;;;1.20;;
2772;SDS011;1394;47.044;15.744;2023-09-07T14:25:40;23.80;;;1.10;;
2772;SDS011;1394;47.044;15.744;2023-09-07T14:28:11;24.57;;;1.23;;
2772;SDS011;1394;47.044;15.744;2023-09-07T14:30:38;23.47;;;1.00;;
2772;SDS011;1394;47.044;15.744;2023-09-07T14:33:06;23.35;;;1.10;;
2772;SDS011;1394;47.044;15.744;2023-09-07T14:35:35;23.65;;;1.20;;
2772;SDS011;1394;47.044;15.744;2023-09-07T14:38:02;24.17;;;1.10;;
2772;SDS011;1394;47.044;15.744;2023-09-07T14:40:29;25.53;;;1.13;;
2772;SDS011;1394;47.044;15.744;2023-09-07T14:42:57;23.63;;;1.20;;
2772;SDS011;1394;47.044;15.744;2023-09-07T14:45:31;23.70;;;1.20;;
2772;SDS011;1394;47.044;15.744;2023-09-07T14:47:59;23.90;;;1.30;;
2772;SDS011;1394;47.044;15.744;2023-09-07T14:50:26;23.90;;;1.20;;
2772;SDS011;1394;47.044;15.744;2023-09-07T14:52:54;23.57;;;1.10;;
2772;SDS011;1394;47.044;15.744;2023-09-07T14:55:21;23.83;;;1.07;;
2772;SDS011;1394;47.044;15.744;2023-09-07T14:57:49;23.90;;;1.00;;